Helston, United Kingdom
Current Conditions -  °F | °C
As of 9:50 PM on Monday 22 Dec 2014 (Local Time) from EGDR Reporting Station
Haze Haze  
Wind Chill: 52°   Ceiling: 3000
Heat Index: 52°   Visibility: 6mi
Dew Point: 48°   Wind: 12mph
Humidity: 88%   Direction: 250°WSW
Pressure: 30.21"   Gusts: 24mph
Location:  50.08°N, 5.2°W
Report Text: EGDR 222150Z 25010G21KT 9999 HZ FEW018 OVC030 11/09 Q1023 REDZ BLU
Loading
Personal Weather Stations






























Interactive Weather Map New forecast layout! Learn more

10-Day Weather Forecast

Advertisements
Track Severe Weather on mobile